sensor_id;sensor_type;location;lat;lon;timestamp;temperature;humidity
28175;SHT30;59417;44.788;10.334;2023-11-18T00:01:21;11.38;43.13
28175;SHT30;59417;44.788;10.334;2023-11-18T00:03:47;11.46;43.04
28175;SHT30;59417;44.788;10.334;2023-11-18T00:06:13;11.45;43.43
28175;SHT30;59417;44.788;10.334;2023-11-18T00:08:38;11.39;43.27
28175;SHT30;59417;44.788;10.334;2023-11-18T00:11:04;11.42;43.53
28175;SHT30;59417;44.788;10.334;2023-11-18T00:13:30;11.42;43.43
28175;SHT30;59417;44.788;10.334;2023-11-18T00:15:56;11.40;43.01
28175;SHT30;59417;44.788;10.334;2023-11-18T00:18:23;11.26;44.12
28175;SHT30;59417;44.788;10.334;2023-11-18T00:20:49;11.36;43.56
28175;SHT30;59417;44.788;10.334;2023-11-18T00:23:17;11.19;44.95
28175;SHT30;59417;44.788;10.334;2023-11-18T00:25:43;11.08;46.10
28175;SHT30;59417;44.788;10.334;2023-11-18T00:28:11;11.12;46.29
28175;SHT30;59417;44.788;10.334;2023-11-18T00:30:38;11.08;47.32
28175;SHT30;59417;44.788;10.334;2023-11-18T00:33:04;10.92;48.01
28175;SHT30;59417;44.788;10.334;2023-11-18T00:35:30;11.22;44.39
28175;SHT30;59417;44.788;10.334;2023-11-18T00:38:00;11.27;45.58
28175;SHT30;59417;44.788;10.334;2023-11-18T00:40:26;11.05;46.26
28175;SHT30;59417;44.788;10.334;2023-11-18T00:42:56;11.06;47.44
28175;SHT30;59417;44.788;10.334;2023-11-18T00:45:21;10.91;48.16
28175;SHT30;59417;44.788;10.334;2023-11-18T00:47:47;10.94;48.13
28175;SHT30;59417;44.788;10.334;2023-11-18T00:50:14;11.08;49.26
28175;SHT30;59417;44.788;10.334;2023-11-18T00:52:39;10.71;50.92
28175;SHT30;59417;44.788;10.334;2023-11-18T00:55:08;10.65;50.49
28175;SHT30;59417;44.788;10.334;2023-11-18T00:57:34;10.54;50.27
28175;SHT30;59417;44.788;10.334;2023-11-18T01:00:01;10.56;49.56
28175;SHT30;59417;44.788;10.334;2023-11-18T01:02:27;10.80;49.48
28175;SHT30;59417;44.788;10.334;2023-11-18T01:04:53;11.06;44.70
28175;SHT30;59417;44.788;10.334;2023-11-18T01:07:18;11.22;43.76
28175;SHT30;59417;44.788;10.334;2023-11-18T01:09:44;11.08;44.40
28175;SHT30;59417;44.788;10.334;2023-11-18T01:12:10;11.06;44.99
28175;SHT30;59417;44.788;10.334;2023-11-18T01:14:37;11.16;45.28
28175;SHT30;59417;44.788;10.334;2023-11-18T01:17:05;10.98;46.80
28175;SHT30;59417;44.788;10.334;2023-11-18T01:19:31;11.12;45.21
28175;SHT30;59417;44.788;10.334;2023-11-18T01:21:59;11.25;44.92
28175;SHT30;59417;44.788;10.334;2023-11-18T01:24:25;11.15;44.36
28175;SHT30;59417;44.788;10.334;2023-11-18T01:26:51;11.08;43.62
28175;SHT30;59417;44.788;10.334;2023-11-18T01:29:17;11.06;44.00
28175;SHT30;59417;44.788;10.334;2023-11-18T01:31:43;11.02;43.98
28175;SHT30;59417;44.788;10.334;2023-11-18T01:34:09;11.01;43.86
28175;SHT30;59417;44.788;10.334;2023-11-18T01:36:35;11.06;43.44
28175;SHT30;59417;44.788;10.334;2023-11-18T01:39:01;11.01;43.40
28175;SHT30;59417;44.788;10.334;2023-11-18T01:41:27;11.04;43.40
28175;SHT30;59417;44.788;10.334;2023-11-18T01:43:54;11.04;43.83
28175;SHT30;59417;44.788;10.334;2023-11-18T01:46:20;10.89;44.39
28175;SHT30;59417;44.788;10.334;2023-11-18T01:48:48;10.89;43.63
28175;SHT30;59417;44.788;10.334;2023-11-18T01:51:14;11.05;43.84
28175;SHT30;59417;44.788;10.334;2023-11-18T01:53:42;11.04;42.96
28175;SHT30;59417;44.788;10.334;2023-11-18T01:56:09;11.04;44.26
28175;SHT30;59417;44.788;10.334;2023-11-18T01:58:36;11.04;43.61
28175;SHT30;59417;44.788;10.334;2023-11-18T02:01:03;10.92;43.74
28175;SHT30;59417;44.788;10.334;2023-11-18T02:03:34;10.89;44.57
28175;SHT30;59417;44.788;10.334;2023-11-18T02:06:02;10.95;44.61
28175;SHT30;59417;44.788;10.334;2023-11-18T02:08:31;10.84;45.91
28175;SHT30;59417;44.788;10.334;2023-11-18T02:11:03;10.74;46.73
28175;SHT30;59417;44.788;10.334;2023-11-18T02:13:39;10.67;46.95
28175;SHT30;59417;44.788;10.334;2023-11-18T02:16:07;10.63;46.38
28175;SHT30;59417;44.788;10.334;2023-11-18T02:18:32;10.60;46.31
28175;SHT30;59417;44.788;10.334;2023-11-18T02:20:59;10.95;46.92
28175;SHT30;59417;44.788;10.334;2023-11-18T02:23:25;10.99;45.57
28175;SHT30;59417;44.788;10.334;2023-11-18T02:25:55;11.02;45.69
28175;SHT30;59417;44.788;10.334;2023-11-18T02:28:21;10.88;44.62
28175;SHT30;59417;44.788;10.334;2023-11-18T02:30:53;10.64;46.49
28175;SHT30;59417;44.788;10.334;2023-11-18T02:33:44;10.45;48.21
28175;SHT30;59417;44.788;10.334;2023-11-18T02:36:38;10.38;48.52
28175;SHT30;59417;44.788;10.334;2023-11-18T02:39:05;10.75;47.20
28175;SHT30;59417;44.788;10.334;2023-11-18T02:41:38;10.57;48.00
28175;SHT30;59417;44.788;10.334;2023-11-18T02:44:06;10.54;46.51
28175;SHT30;59417;44.788;10.334;2023-11-18T02:46:38;10.20;49.69
28175;SHT30;59417;44.788;10.334;2023-11-18T02:49:05;10.34;46.66
28175;SHT30;59417;44.788;10.334;2023-11-18T02:51:31;10.57;47.23
28175;SHT30;59417;44.788;10.334;2023-11-18T02:53:59;10.31;45.96
28175;SHT30;59417;44.788;10.334;2023-11-18T02:56:25;10.47;45.36
28175;SHT30;59417;44.788;10.334;2023-11-18T02:58:50;10.54;44.85
28175;SHT30;59417;44.788;10.334;2023-11-18T03:01:16;10.38;47.42
28175;SHT30;59417;44.788;10.334;2023-11-18T03:03:42;10.21;45.98
28175;SHT30;59417;44.788;10.334;2023-11-18T03:06:08;10.38;46.53
28175;SHT30;59417;44.788;10.334;2023-11-18T03:08:36;10.36;46.40
28175;SHT30;59417;44.788;10.334;2023-11-18T03:11:03;10.40;46.38
28175;SHT30;59417;44.788;10.334;2023-11-18T03:13:30;10.23;48.93
28175;SHT30;59417;44.788;10.334;2023-11-18T03:15:55;10.10;47.68
28175;SHT30;59417;44.788;10.334;2023-11-18T03:18:21;10.19;49.11
28175;SHT30;59417;44.788;10.334;2023-11-18T03:20:46;9.93;48.39
28175;SHT30;59417;44.788;10.334;2023-11-18T03:23:14;10.02;47.08
28175;SHT30;59417;44.788;10.334;2023-11-18T03:25:39;10.13;49.15
28175;SHT30;59417;44.788;10.334;2023-11-18T03:28:05;9.82;48.87
28175;SHT30;59417;44.788;10.334;2023-11-18T03:30:32;9.81;48.96
28175;SHT30;59417;44.788;10.334;2023-11-18T03:33:00;9.75;50.91
28175;SHT30;59417;44.788;10.334;2023-11-18T03:35:27;9.70;49.13
28175;SHT30;59417;44.788;10.334;2023-11-18T03:37:53;9.72;51.18
28175;SHT30;59417;44.788;10.334;2023-11-18T03:40:21;9.59;50.92
28175;SHT30;59417;44.788;10.334;2023-11-18T03:42:50;9.58;49.65
28175;SHT30;59417;44.788;10.334;2023-11-18T03:45:16;9.81;47.24
28175;SHT30;59417;44.788;10.334;2023-11-18T03:47:43;10.17;45.90
28175;SHT30;59417;44.788;10.334;2023-11-18T03:50:09;10.20;45.68
28175;SHT30;59417;44.788;10.334;2023-11-18T03:52:38;10.24;45.37
28175;SHT30;59417;44.788;10.334;2023-11-18T03:55:04;10.27;45.37
28175;SHT30;59417;44.788;10.334;2023-11-18T03:57:32;10.29;45.33
28175;SHT30;59417;44.788;10.334;2023-11-18T03:59:57;10.29;45.38
28175;SHT30;59417;44.788;10.334;2023-11-18T04:02:23;10.27;45.39
28175;SHT30;59417;44.788;10.334;2023-11-18T04:04:48;10.24;45.28
28175;SHT30;59417;44.788;10.334;2023-11-18T04:07:14;10.03;48.26
28175;SHT30;59417;44.788;10.334;2023-11-18T04:09:40;9.75;49.62
28175;SHT30;59417;44.788;10.334;2023-11-18T04:12:07;9.62;51.55
28175;SHT30;59417;44.788;10.334;2023-11-18T04:14:33;9.54;51.94
28175;SHT30;59417;44.788;10.334;2023-11-18T04:16:59;9.44;52.66
28175;SHT30;59417;44.788;10.334;2023-11-18T04:19:25;9.34;52.78
28175;SHT30;59417;44.788;10.334;2023-11-18T04:21:51;9.37;52.73
28175;SHT30;59417;44.788;10.334;2023-11-18T04:24:17;9.35;53.09
28175;SHT30;59417;44.788;10.334;2023-11-18T04:26:43;9.63;50.60
28175;SHT30;59417;44.788;10.334;2023-11-18T04:29:09;9.61;52.20
28175;SHT30;59417;44.788;10.334;2023-11-18T04:31:34;9.61;50.97
28175;SHT30;59417;44.788;10.334;2023-11-18T04:34:01;9.76;50.31
28175;SHT30;59417;44.788;10.334;2023-11-18T04:36:27;9.72;49.69
28175;SHT30;59417;44.788;10.334;2023-11-18T04:38:54;9.61;49.08
28175;SHT30;59417;44.788;10.334;2023-11-18T04:41:20;9.47;50.36
28175;SHT30;59417;44.788;10.334;2023-11-18T04:43:46;9.14;52.15
28175;SHT30;59417;44.788;10.334;2023-11-18T04:46:13;9.17;51.01
28175;SHT30;59417;44.788;10.334;2023-11-18T04:48:40;9.03;52.39
28175;SHT30;59417;44.788;10.334;2023-11-18T04:51:06;9.08;51.13
28175;SHT30;59417;44.788;10.334;2023-11-18T04:53:32;9.15;50.61
28175;SHT30;59417;44.788;10.334;2023-11-18T04:55:57;9.18;49.84
28175;SHT30;59417;44.788;10.334;2023-11-18T04:58:23;9.25;49.78
28175;SHT30;59417;44.788;10.334;2023-11-18T05:00:49;9.27;51.33
28175;SHT30;59417;44.788;10.334;2023-11-18T05:03:16;9.18;49.35
28175;SHT30;59417;44.788;10.334;2023-11-18T05:05:42;9.20;49.68
28175;SHT30;59417;44.788;10.334;2023-11-18T05:08:18;9.27;49.12
28175;SHT30;59417;44.788;10.334;2023-11-18T05:10:47;9.25;49.39
28175;SHT30;59417;44.788;10.334;2023-11-18T05:13:13;9.32;48.71
28175;SHT30;59417;44.788;10.334;2023-11-18T05:15:43;9.30;49.11
28175;SHT30;59417;44.788;10.334;2023-11-18T05:18:14;9.23;48.81
28175;SHT30;59417;44.788;10.334;2023-11-18T05:20:43;9.20;48.73
28175;SHT30;59417;44.788;10.334;2023-11-18T05:23:09;9.28;49.89
28175;SHT30;59417;44.788;10.334;2023-11-18T05:25:46;9.28;48.45
28175;SHT30;59417;44.788;10.334;2023-11-18T05:28:16;9.23;49.04
28175;SHT30;59417;44.788;10.334;2023-11-18T05:30:49;9.38;48.72
28175;SHT30;59417;44.788;10.334;2023-11-18T05:33:20;9.41;47.98
28175;SHT30;59417;44.788;10.334;2023-11-18T05:35:51;9.48;47.74
28175;SHT30;59417;44.788;10.334;2023-11-18T05:39:07;9.47;48.56
28175;SHT30;59417;44.788;10.334;2023-11-18T05:41:18;9.44;48.12
28175;SHT30;59417;44.788;10.334;2023-11-18T05:43:55;9.49;48.31
28175;SHT30;59417;44.788;10.334;2023-11-18T05:46:26;9.47;47.78
28175;SHT30;59417;44.788;10.334;2023-11-18T05:48:56;9.54;47.89
28175;SHT30;59417;44.788;10.334;2023-11-18T05:51:24;9.48;48.13
28175;SHT30;59417;44.788;10.334;2023-11-18T05:53:51;9.51;47.85
28175;SHT30;59417;44.788;10.334;2023-11-18T05:56:28;9.44;47.64
28175;SHT30;59417;44.788;10.334;2023-11-18T05:58:54;9.57;50.03
28175;SHT30;59417;44.788;10.334;2023-11-18T06:01:23;9.28;52.31
28175;SHT30;59417;44.788;10.334;2023-11-18T06:03:49;8.81;53.19
28175;SHT30;59417;44.788;10.334;2023-11-18T06:06:16;8.74;53.35
28175;SHT30;59417;44.788;10.334;2023-11-18T06:08:46;8.59;53.44
28175;SHT30;59417;44.788;10.334;2023-11-18T06:11:14;9.04;51.86
28175;SHT30;59417;44.788;10.334;2023-11-18T06:13:42;8.94;52.89
28175;SHT30;59417;44.788;10.334;2023-11-18T06:16:13;8.79;53.35
28175;SHT30;59417;44.788;10.334;2023-11-18T06:18:43;8.84;52.50
28175;SHT30;59417;44.788;10.334;2023-11-18T06:21:12;8.73;53.03
28175;SHT30;59417;44.788;10.334;2023-11-18T06:23:43;8.46;54.42
28175;SHT30;59417;44.788;10.334;2023-11-18T06:26:11;8.52;54.46
28175;SHT30;59417;44.788;10.334;2023-11-18T06:28:42;8.50;54.29
28175;SHT30;59417;44.788;10.334;2023-11-18T06:31:11;8.70;53.73
28175;SHT30;59417;44.788;10.334;2023-11-18T06:33:42;8.99;53.31
28175;SHT30;59417;44.788;10.334;2023-11-18T06:38:40;8.94;52.46
28175;SHT30;59417;44.788;10.334;2023-11-18T06:41:06;9.04;51.71
28175;SHT30;59417;44.788;10.334;2023-11-18T06:43:39;9.11;51.67
28175;SHT30;59417;44.788;10.334;2023-11-18T06:46:31;8.99;51.41
28175;SHT30;59417;44.788;10.334;2023-11-18T06:49:00;9.06;52.49
28175;SHT30;59417;44.788;10.334;2023-11-18T06:51:31;9.01;52.63
28175;SHT30;59417;44.788;10.334;2023-11-18T06:54:00;8.92;52.61
28175;SHT30;59417;44.788;10.334;2023-11-18T06:56:29;8.96;53.01
28175;SHT30;59417;44.788;10.334;2023-11-18T06:58:55;8.99;52.27
28175;SHT30;59417;44.788;10.334;2023-11-18T07:01:21;8.92;52.02
28175;SHT30;59417;44.788;10.334;2023-11-18T07:03:48;8.92;50.94
28175;SHT30;59417;44.788;10.334;2023-11-18T07:06:17;9.03;50.64
28175;SHT30;59417;44.788;10.334;2023-11-18T07:08:51;9.04;50.61
28175;SHT30;59417;44.788;10.334;2023-11-18T07:11:17;9.03;51.38
28175;SHT30;59417;44.788;10.334;2023-11-18T07:13:44;9.07;50.95
28175;SHT30;59417;44.788;10.334;2023-11-18T07:16:10;9.17;50.33
28175;SHT30;59417;44.788;10.334;2023-11-18T07:18:37;9.08;50.59
28175;SHT30;59417;44.788;10.334;2023-11-18T07:21:04;9.07;50.81
28175;SHT30;59417;44.788;10.334;2023-11-18T07:23:33;9.23;51.05
28175;SHT30;59417;44.788;10.334;2023-11-18T07:26:00;9.30;51.43
28175;SHT30;59417;44.788;10.334;2023-11-18T07:28:26;9.38;50.79
28175;SHT30;59417;44.788;10.334;2023-11-18T07:30:53;9.30;51.01
28175;SHT30;59417;44.788;10.334;2023-11-18T07:33:20;9.44;50.62
28175;SHT30;59417;44.788;10.334;2023-11-18T07:35:47;9.54;49.98
28175;SHT30;59417;44.788;10.334;2023-11-18T07:38:15;9.54;50.00
28175;SHT30;59417;44.788;10.334;2023-11-18T07:40:41;9.66;49.81
28175;SHT30;59417;44.788;10.334;2023-11-18T07:43:14;9.79;49.43
28175;SHT30;59417;44.788;10.334;2023-11-18T07:45:43;9.86;50.12
28175;SHT30;59417;44.788;10.334;2023-11-18T07:48:10;9.96;50.29
28175;SHT30;59417;44.788;10.334;2023-11-18T07:50:39;10.06;50.38
28175;SHT30;59417;44.788;10.334;2023-11-18T07:53:07;9.99;50.76
28175;SHT30;59417;44.788;10.334;2023-11-18T07:55:34;10.00;51.78
28175;SHT30;59417;44.788;10.334;2023-11-18T07:58:01;9.93;50.15
28175;SHT30;59417;44.788;10.334;2023-11-18T08:00:28;9.90;50.64
28175;SHT30;59417;44.788;10.334;2023-11-18T08:02:57;9.96;51.24
28175;SHT30;59417;44.788;10.334;2023-11-18T08:05:27;9.95;50.73
28175;SHT30;59417;44.788;10.334;2023-11-18T08:07:54;10.06;50.86
28175;SHT30;59417;44.788;10.334;2023-11-18T08:10:22;10.24;50.19
28175;SHT30;59417;44.788;10.334;2023-11-18T08:12:51;10.26;50.62
28175;SHT30;59417;44.788;10.334;2023-11-18T08:15:20;10.29;49.72
28175;SHT30;59417;44.788;10.334;2023-11-18T08:17:49;10.26;50.49
28175;SHT30;59417;44.788;10.334;2023-11-18T08:20:21;10.33;50.90
28175;SHT30;59417;44.788;10.334;2023-11-18T08:22:50;10.51;50.52
28175;SHT30;59417;44.788;10.334;2023-11-18T08:25:16;10.52;51.76
28175;SHT30;59417;44.788;10.334;2023-11-18T08:27:43;10.59;53.04
28175;SHT30;59417;44.788;10.334;2023-11-18T08:30:11;10.77;52.74
28175;SHT30;59417;44.788;10.334;2023-11-18T08:32:44;11.04;49.02
28175;SHT30;59417;44.788;10.334;2023-11-18T08:35:11;10.95;51.00
28175;SHT30;59417;44.788;10.334;2023-11-18T08:37:40;11.26;48.92
28175;SHT30;59417;44.788;10.334;2023-11-18T08:40:09;11.22;48.29
28175;SHT30;59417;44.788;10.334;2023-11-18T08:42:46;11.23;48.83
28175;SHT30;59417;44.788;10.334;2023-11-18T08:45:20;11.25;48.72
28175;SHT30;59417;44.788;10.334;2023-11-18T08:48:01;11.12;48.28
28175;SHT30;59417;44.788;10.334;2023-11-18T08:50:28;11.22;48.89
28175;SHT30;59417;44.788;10.334;2023-11-18T08:52:55;11.30;48.77
28175;SHT30;59417;44.788;10.334;2023-11-18T08:55:30;11.36;48.73
28175;SHT30;59417;44.788;10.334;2023-11-18T08:58:09;11.39;49.07
28175;SHT30;59417;44.788;10.334;2023-11-18T09:00:46;11.46;48.36
28175;SHT30;59417;44.788;10.334;2023-11-18T09:03:20;11.50;49.67
28175;SHT30;59417;44.788;10.334;2023-11-18T09:06:06;11.57;47.73
28175;SHT30;59417;44.788;10.334;2023-11-18T09:08:53;11.64;46.31
28175;SHT30;59417;44.788;10.334;2023-11-18T09:11:22;11.80;46.18
28175;SHT30;59417;44.788;10.334;2023-11-18T09:13:51;11.84;46.77
28175;SHT30;59417;44.788;10.334;2023-11-18T09:16:26;11.81;44.34
28175;SHT30;59417;44.788;10.334;2023-11-18T09:18:55;11.98;44.91
28175;SHT30;59417;44.788;10.334;2023-11-18T09:21:32;12.02;44.88
28175;SHT30;59417;44.788;10.334;2023-11-18T09:24:02;12.02;44.25
28175;SHT30;59417;44.788;10.334;2023-11-18T09:26:31;11.94;43.83
28175;SHT30;59417;44.788;10.334;2023-11-18T09:28:59;12.05;43.23
28175;SHT30;59417;44.788;10.334;2023-11-18T09:31:27;12.13;45.87
28175;SHT30;59417;44.788;10.334;2023-11-18T09:33:53;12.16;44.01
28175;SHT30;59417;44.788;10.334;2023-11-18T09:36:19;12.21;46.05
28175;SHT30;59417;44.788;10.334;2023-11-18T09:38:47;12.29;44.80
28175;SHT30;59417;44.788;10.334;2023-11-18T09:41:15;12.37;44.84
28175;SHT30;59417;44.788;10.334;2023-11-18T09:43:44;12.44;45.16
28175;SHT30;59417;44.788;10.334;2023-11-18T09:46:15;12.52;43.87
28175;SHT30;59417;44.788;10.334;2023-11-18T09:48:52;12.55;43.97
28175;SHT30;59417;44.788;10.334;2023-11-18T09:51:23;12.41;43.82
28175;SHT30;59417;44.788;10.334;2023-11-18T09:53:51;12.39;43.72
28175;SHT30;59417;44.788;10.334;2023-11-18T09:59:42;12.62;44.44
28175;SHT30;59417;44.788;10.334;2023-11-18T10:02:10;12.76;44.52
28175;SHT30;59417;44.788;10.334;2023-11-18T10:04:37;12.80;42.81
28175;SHT30;59417;44.788;10.334;2023-11-18T10:07:08;12.87;45.52
28175;SHT30;59417;44.788;10.334;2023-11-18T10:09:36;13.02;42.77
28175;SHT30;59417;44.788;10.334;2023-11-18T10:12:04;12.95;43.23
28175;SHT30;59417;44.788;10.334;2023-11-18T10:14:37;13.16;42.84
28175;SHT30;59417;44.788;10.334;2023-11-18T10:17:06;13.20;43.39
28175;SHT30;59417;44.788;10.334;2023-11-18T10:22:28;13.40;44.05
28175;SHT30;59417;44.788;10.334;2023-11-18T10:24:55;13.45;42.18
28175;SHT30;59417;44.788;10.334;2023-11-18T10:27:26;13.53;42.85
28175;SHT30;59417;44.788;10.334;2023-11-18T10:30:02;13.54;42.25
28175;SHT30;59417;44.788;10.334;2023-11-18T10:32:29;13.61;42.47
28175;SHT30;59417;44.788;10.334;2023-11-18T10:34:58;13.82;42.55
28175;SHT30;59417;44.788;10.334;2023-11-18T10:37:31;13.91;41.19
28175;SHT30;59417;44.788;10.334;2023-11-18T10:40:03;13.95;41.67
28175;SHT30;59417;44.788;10.334;2023-11-18T10:42:30;14.06;41.76
28175;SHT30;59417;44.788;10.334;2023-11-18T10:44:58;14.30;42.02
28175;SHT30;59417;44.788;10.334;2023-11-18T10:47:25;14.41;41.44
28175;SHT30;59417;44.788;10.334;2023-11-18T10:49:54;14.50;42.88
28175;SHT30;59417;44.788;10.334;2023-11-18T10:52:22;14.59;41.66
28175;SHT30;59417;44.788;10.334;2023-11-18T10:54:53;14.56;41.11
28175;SHT30;59417;44.788;10.334;2023-11-18T10:57:23;14.67;40.96
28175;SHT30;59417;44.788;10.334;2023-11-18T11:00:00;14.68;40.45
28175;SHT30;59417;44.788;10.334;2023-11-18T11:02:30;14.74;40.82
28175;SHT30;59417;44.788;10.334;2023-11-18T11:05:01;14.77;40.11
28175;SHT30;59417;44.788;10.334;2023-11-18T11:07:31;14.78;41.54
28175;SHT30;59417;44.788;10.334;2023-11-18T11:09:59;14.90;39.59
28175;SHT30;59417;44.788;10.334;2023-11-18T11:12:25;15.02;40.46
28175;SHT30;59417;44.788;10.334;2023-11-18T11:15:03;15.02;39.89
28175;SHT30;59417;44.788;10.334;2023-11-18T11:17:35;15.07;39.61
28175;SHT30;59417;44.788;10.334;2023-11-18T11:20:06;15.01;39.69
28175;SHT30;59417;44.788;10.334;2023-11-18T11:28:40;14.98;39.92
28175;SHT30;59417;44.788;10.334;2023-11-18T11:31:19;15.18;40.33
28175;SHT30;59417;44.788;10.334;2023-11-18T11:34:36;15.23;38.07
28175;SHT30;59417;44.788;10.334;2023-11-18T11:36:47;15.12;38.48
28175;SHT30;59417;44.788;10.334;2023-11-18T11:39:17;15.14;37.87
28175;SHT30;59417;44.788;10.334;2023-11-18T11:41:52;15.14;36.99
28175;SHT30;59417;44.788;10.334;2023-11-18T11:44:20;15.12;37.70
28175;SHT30;59417;44.788;10.334;2023-11-18T11:46:47;15.19;38.50
28175;SHT30;59417;44.788;10.334;2023-11-18T11:49:22;15.29;38.03
28175;SHT30;59417;44.788;10.334;2023-11-18T11:52:01;15.18;39.14
28175;SHT30;59417;44.788;10.334;2023-11-18T11:54:43;15.18;39.51
28175;SHT30;59417;44.788;10.334;2023-11-18T11:57:10;15.22;40.87
28175;SHT30;59417;44.788;10.334;2023-11-18T12:02:20;15.32;40.27
28175;SHT30;59417;44.788;10.334;2023-11-18T12:04:53;15.29;39.05
28175;SHT30;59417;44.788;10.334;2023-11-18T12:07:20;15.28;41.53
28175;SHT30;59417;44.788;10.334;2023-11-18T12:09:49;15.32;40.13
28175;SHT30;59417;44.788;10.334;2023-11-18T12:12:22;15.42;40.24
28175;SHT30;59417;44.788;10.334;2023-11-18T12:14:55;15.43;40.23
28175;SHT30;59417;44.788;10.334;2023-11-18T12:23:14;15.51;40.19
28175;SHT30;59417;44.788;10.334;2023-11-18T12:25:41;15.55;39.59
28175;SHT30;59417;44.788;10.334;2023-11-18T12:28:11;15.28;40.23
28175;SHT30;59417;44.788;10.334;2023-11-18T12:30:44;15.36;40.91
28175;SHT30;59417;44.788;10.334;2023-11-18T12:33:23;15.35;40.21
28175;SHT30;59417;44.788;10.334;2023-11-18T12:41:39;15.41;39.90
28175;SHT30;59417;44.788;10.334;2023-11-18T12:46:54;15.59;42.43
28175;SHT30;59417;44.788;10.334;2023-11-18T12:49:38;15.59;40.60
28175;SHT30;59417;44.788;10.334;2023-11-18T12:52:13;15.58;41.54
28175;SHT30;59417;44.788;10.334;2023-11-18T12:54:41;15.58;41.31
28175;SHT30;59417;44.788;10.334;2023-11-18T12:57:12;15.55;41.73
28175;SHT30;59417;44.788;10.334;2023-11-18T12:59:41;15.58;41.20
28175;SHT30;59417;44.788;10.334;2023-11-18T13:02:12;15.62;41.74
28175;SHT30;59417;44.788;10.334;2023-11-18T13:04:49;15.69;41.06
28175;SHT30;59417;44.788;10.334;2023-11-18T13:07:16;15.58;41.01
28175;SHT30;59417;44.788;10.334;2023-11-18T13:09:47;15.74;42.58
28175;SHT30;59417;44.788;10.334;2023-11-18T13:12:14;15.77;41.16
28175;SHT30;59417;44.788;10.334;2023-11-18T13:14:41;15.73;41.98
28175;SHT30;59417;44.788;10.334;2023-11-18T13:17:10;15.69;41.82
28175;SHT30;59417;44.788;10.334;2023-11-18T13:19:42;15.59;42.67
28175;SHT30;59417;44.788;10.334;2023-11-18T13:22:10;15.69;42.91
28175;SHT30;59417;44.788;10.334;2023-11-18T13:24:38;15.83;43.47
28175;SHT30;59417;44.788;10.334;2023-11-18T13:27:16;15.80;41.97
28175;SHT30;59417;44.788;10.334;2023-11-18T13:29:46;15.73;42.06
28175;SHT30;59417;44.788;10.334;2023-11-18T13:32:16;15.83;43.33
28175;SHT30;59417;44.788;10.334;2023-11-18T13:34:42;15.84;42.79
28175;SHT30;59417;44.788;10.334;2023-11-18T13:37:09;15.76;42.49
28175;SHT30;59417;44.788;10.334;2023-11-18T13:39:37;15.79;42.77
28175;SHT30;59417;44.788;10.334;2023-11-18T13:44:45;15.69;41.52
28175;SHT30;59417;44.788;10.334;2023-11-18T13:47:17;15.73;41.79
28175;SHT30;59417;44.788;10.334;2023-11-18T13:49:44;15.73;40.70
28175;SHT30;59417;44.788;10.334;2023-11-18T13:52:13;15.73;40.34
28175;SHT30;59417;44.788;10.334;2023-11-18T13:54:46;15.73;38.84
28175;SHT30;59417;44.788;10.334;2023-11-18T13:57:13;15.67;41.06
28175;SHT30;59417;44.788;10.334;2023-11-18T13:59:40;15.72;39.81
28175;SHT30;59417;44.788;10.334;2023-11-18T14:02:10;15.70;40.05
28175;SHT30;59417;44.788;10.334;2023-11-18T14:04:39;15.83;38.48
28175;SHT30;59417;44.788;10.334;2023-11-18T14:07:13;15.72;37.79
28175;SHT30;59417;44.788;10.334;2023-11-18T14:09:46;15.74;37.69
28175;SHT30;59417;44.788;10.334;2023-11-18T14:12:13;15.70;39.47
28175;SHT30;59417;44.788;10.334;2023-11-18T14:14:39;15.70;39.95
28175;SHT30;59417;44.788;10.334;2023-11-18T14:17:07;15.63;40.74
28175;SHT30;59417;44.788;10.334;2023-11-18T14:19:36;15.62;42.57
28175;SHT30;59417;44.788;10.334;2023-11-18T14:22:04;15.61;40.68
28175;SHT30;59417;44.788;10.334;2023-11-18T14:24:35;15.53;41.97
28175;SHT30;59417;44.788;10.334;2023-11-18T14:27:02;15.45;42.49
28175;SHT30;59417;44.788;10.334;2023-11-18T14:29:30;15.46;41.14
28175;SHT30;59417;44.788;10.334;2023-11-18T14:31:56;15.51;42.19
28175;SHT30;59417;44.788;10.334;2023-11-18T14:34:23;15.46;42.72
28175;SHT30;59417;44.788;10.334;2023-11-18T14:36:49;15.39;42.37
28175;SHT30;59417;44.788;10.334;2023-11-18T14:39:15;15.22;43.31
28175;SHT30;59417;44.788;10.334;2023-11-18T14:41:48;15.42;42.18
28175;SHT30;59417;44.788;10.334;2023-11-18T14:44:14;15.34;43.41
28175;SHT30;59417;44.788;10.334;2023-11-18T14:46:40;15.22;43.78
28175;SHT30;59417;44.788;10.334;2023-11-18T14:49:07;15.22;43.04
28175;SHT30;59417;44.788;10.334;2023-11-18T14:51:34;15.07;43.92
28175;SHT30;59417;44.788;10.334;2023-11-18T14:54:03;15.16;43.22
28175;SHT30;59417;44.788;10.334;2023-11-18T14:56:31;15.29;40.67
28175;SHT30;59417;44.788;10.334;2023-11-18T14:58:57;15.15;41.36
28175;SHT30;59417;44.788;10.334;2023-11-18T15:01:25;14.90;43.58
28175;SHT30;59417;44.788;10.334;2023-11-18T15:03:51;14.76;46.09
28175;SHT30;59417;44.788;10.334;2023-11-18T15:06:27;14.68;47.32
28175;SHT30;59417;44.788;10.334;2023-11-18T15:08:53;14.59;48.79
28175;SHT30;59417;44.788;10.334;2023-11-18T15:11:23;14.47;48.82
28175;SHT30;59417;44.788;10.334;2023-11-18T15:13:51;14.40;49.07
28175;SHT30;59417;44.788;10.334;2023-11-18T15:16:20;14.34;48.65
28175;SHT30;59417;44.788;10.334;2023-11-18T15:18:51;14.34;49.00
28175;SHT30;59417;44.788;10.334;2023-11-18T15:21:19;14.29;49.70
28175;SHT30;59417;44.788;10.334;2023-11-18T15:24:02;14.23;49.52
28175;SHT30;59417;44.788;10.334;2023-11-18T15:26:41;14.17;50.12
28175;SHT30;59417;44.788;10.334;2023-11-18T15:29:14;14.10;51.35
28175;SHT30;59417;44.788;10.334;2023-11-18T15:31:44;14.13;51.78
28175;SHT30;59417;44.788;10.334;2023-11-18T15:34:26;14.29;50.07
28175;SHT30;59417;44.788;10.334;2023-11-18T15:37:00;14.10;49.29
28175;SHT30;59417;44.788;10.334;2023-11-18T15:39:59;13.74;51.78
28175;SHT30;59417;44.788;10.334;2023-11-18T15:42:42;13.68;52.17
28175;SHT30;59417;44.788;10.334;2023-11-18T15:45:34;13.58;52.39
28175;SHT30;59417;44.788;10.334;2023-11-18T15:48:01;13.61;52.76
28175;SHT30;59417;44.788;10.334;2023-11-18T15:50:33;13.53;51.87
28175;SHT30;59417;44.788;10.334;2023-11-18T15:53:09;13.58;52.86
28175;SHT30;59417;44.788;10.334;2023-11-18T15:55:45;13.33;53.80
28175;SHT30;59417;44.788;10.334;2023-11-18T15:58:25;13.24;54.12
28175;SHT30;59417;44.788;10.334;2023-11-18T16:00:58;13.09;54.09
28175;SHT30;59417;44.788;10.334;2023-11-18T16:03:30;13.14;52.92
28175;SHT30;59417;44.788;10.334;2023-11-18T16:06:07;13.14;51.25
28175;SHT30;59417;44.788;10.334;2023-11-18T16:08:39;13.06;54.37